16°C Temp
16°C Dewpoint
100% Humidity
Temperature
11 KM/H
7 MPH
6 KTS
210°
South South
West

Wind Speed
Mostly Cloudy
Conditions
Pressure 1007.92 (hPa) - 29.76 (in)
Visibility 6.2 (mi) - 10.0 (km)

Current Conditions
EGGD
Location 18(mi)
Metar :EGGD 092250Z AUTO 21006KT 180V240 9999 BKN002 OVC010 16/16 Q1008
Thu 9th September 23:50 pm

Airport
  Metar Aviation API Data Provided by https://www.checkwx.com/ PHP scripts by weather34.com ©2021